Time;durP1;ratioP1;P1;durP2;ratioP2;P2;SDS_P1;SDS_P2;PMS_P1;PMS_P2;Temp;Humidity;BMP_temperature;BMP_pressure;BME280_temperature;BME280_humidity;BME280_pressure;Samples;Min_cycle;Max_cycle;Signal;HPM_P1;HPM_P2
2023/10/06 00:01:51;;;;;;;9.25;3.50;;;15.00;99.90;;;;;;5050984;28;20045;-67
2023/10/06 00:04:19;;;;;;;10.63;3.90;;;15.00;99.90;;;;;;5050567;28;20417;-67
2023/10/06 00:06:45;;;;;;;8.27;3.80;;;15.00;99.90;;;;;;5050344;28;20521;-67
2023/10/06 00:09:30;;;;;;;9.18;3.92;;;15.00;99.90;;;;;;5049683;28;20486;-67
2023/10/06 00:11:56;;;;;;;13.75;4.35;;;15.10;99.90;;;;;;5050829;28;20033;-67
2023/10/06 00:14:40;;;;;;;11.43;4.15;;;15.10;99.90;;;;;;5050621;28;20053;-67
2023/10/06 00:17:21;;;;;;;10.45;3.58;;;15.10;99.90;;;;;;5053348;28;20466;-67
2023/10/06 00:19:55;;;;;;;11.15;3.70;;;15.10;99.90;;;;;;5066417;28;20075;-67
2023/10/06 00:22:26;;;;;;;9.40;4.30;;;15.10;99.90;;;;;;5070473;28;20119;-67
2023/10/06 00:24:55;;;;;;;9.50;3.67;;;15.10;99.90;;;;;;5053010;28;20048;-67
2023/10/06 00:27:24;;;;;;;17.08;4.28;;;15.10;99.90;;;;;;5070438;28;20082;-67
2023/10/06 00:29:56;;;;;;;10.45;3.80;;;15.10;99.90;;;;;;5053706;28;20551;-67
2023/10/06 00:32:23;;;;;;;14.05;4.47;;;15.10;99.90;;;;;;5050184;28;20124;-67
2023/10/06 00:34:49;;;;;;;12.10;4.35;;;15.10;99.90;;;;;;5050264;28;20049;-67
2023/10/06 00:37:22;;;;;;;12.63;4.13;;;15.10;99.90;;;;;;5049672;28;20398;-67
2023/10/06 00:39:56;;;;;;;11.80;4.05;;;15.10;99.90;;;;;;5050437;28;20588;-67
2023/10/06 00:42:22;;;;;;;14.63;4.30;;;15.10;99.90;;;;;;5066941;28;20044;-66
2023/10/06 00:44:48;;;;;;;12.35;5.00;;;15.10;99.90;;;;;;5083288;28;20668;-67
2023/10/06 00:47:15;;;;;;;12.35;5.03;;;15.20;99.90;;;;;;5051372;28;20041;-67
2023/10/06 00:49:43;;;;;;;10.93;5.13;;;15.10;99.90;;;;;;5051377;28;20057;-67
2023/10/06 00:52:11;;;;;;;10.07;4.72;;;15.10;99.90;;;;;;5066267;28;20045;-67
2023/10/06 00:54:40;;;;;;;14.75;4.78;;;15.10;99.90;;;;;;5066828;28;20041;-66
2023/10/06 00:57:10;;;;;;;8.75;3.47;;;15.10;99.90;;;;;;5067155;28;20045;-67
2023/10/06 00:59:36;;;;;;;10.35;4.28;;;15.10;99.90;;;;;;5056139;28;20055;-67
2023/10/06 01:02:03;;;;;;;11.50;4.25;;;15.10;99.90;;;;;;5053811;28;20485;-67
2023/10/06 01:04:34;;;;;;;13.70;4.97;;;15.20;99.90;;;;;;5069535;28;20070;-67
2023/10/06 01:07:00;;;;;;;11.27;4.28;;;15.10;99.90;;;;;;5067660;28;20041;-67
2023/10/06 01:09:35;;;;;;;11.68;4.45;;;15.20;99.90;;;;;;5056845;28;20060;-67
2023/10/06 01:12:05;;;;;;;17.52;4.55;;;15.20;99.90;;;;;;5074468;28;20044;-67
2023/10/06 01:14:37;;;;;;;10.80;3.95;;;15.20;99.90;;;;;;5057600;28;20049;-67
2023/10/06 01:17:16;;;;;;;12.55;3.78;;;15.20;99.90;;;;;;5053976;28;20051;-67
2023/10/06 01:19:53;;;;;;;11.52;4.55;;;15.20;99.90;;;;;;5036365;28;20494;-67
2023/10/06 01:22:29;;;;;;;8.50;4.00;;;15.20;99.90;;;;;;5087582;28;20394;-67
2023/10/06 01:24:55;;;;;;;8.18;4.35;;;15.20;99.90;;;;;;5053875;28;20040;-67
2023/10/06 01:27:27;;;;;;;11.13;4.10;;;15.20;99.90;;;;;;5053283;28;20045;-67
2023/10/06 01:30:16;;;;;;;12.45;4.80;;;15.20;99.90;;;;;;5036814;28;20033;-67
2023/10/06 01:32:43;;;;;;;12.80;4.03;;;15.20;99.90;;;;;;5087047;28;20051;-67
2023/10/06 01:35:13;;;;;;;10.20;4.05;;;15.20;99.90;;;;;;5052735;28;20045;-66
2023/10/06 01:37:43;;;;;;;13.43;5.32;;;15.20;99.90;;;;;;5053074;28;20044;-67
2023/10/06 01:40:44;;;;;;;11.50;4.15;;;15.20;99.90;;;;;;5052469;28;20049;-66
2023/10/06 01:43:14;;;;;;;13.50;4.40;;;15.20;99.90;;;;;;5031466;28;20046;-66
2023/10/06 01:45:46;;;;;;;11.02;4.43;;;15.20;99.90;;;;;;5033136;28;20090;-66
2023/10/06 01:50:39;;;;;;;9.95;4.63;;;15.20;99.90;;;;;;5067623;28;20073;-66
2023/10/06 01:53:07;;;;;;;8.63;4.25;;;15.30;99.90;;;;;;5066759;28;20406;-67
2023/10/06 01:55:41;;;;;;;9.00;4.32;;;15.20;99.90;;;;;;5048981;28;20037;-66
2023/10/06 01:58:11;;;;;;;8.95;4.13;;;15.20;99.90;;;;;;5034419;28;20398;-66
2023/10/06 02:00:37;;;;;;;12.25;4.80;;;15.20;99.90;;;;;;5069792;28;20474;-66
2023/10/06 02:03:04;;;;;;;12.43;4.47;;;15.20;99.90;;;;;;5052305;28;20053;-66
2023/10/06 02:05:29;;;;;;;10.77;4.35;;;15.20;99.90;;;;;;5052588;28;20072;-66
2023/10/06 02:08:00;;;;;;;8.93;4.35;;;15.20;99.90;;;;;;5053118;28;20068;-67
2023/10/06 02:10:26;;;;;;;16.95;5.47;;;15.20;99.90;;;;;;5052437;28;20040;-66
2023/10/06 02:12:52;;;;;;;11.00;5.00;;;15.20;99.90;;;;;;5052975;28;20045;-66
2023/10/06 02:15:18;;;;;;;12.63;4.97;;;15.20;99.90;;;;;;5052443;28;20788;-66
2023/10/06 02:17:44;;;;;;;9.40;4.65;;;15.20;99.90;;;;;;5054059;28;20086;-66
2023/10/06 02:20:52;;;;;;;11.05;4.55;;;15.20;99.90;;;;;;5064210;28;20040;-66
2023/10/06 02:22:59;;;;;;;13.25;4.82;;;15.10;99.90;;;;;;5063807;28;20045;-66
2023/10/06 02:25:25;;;;;;;8.98;3.65;;;15.10;99.90;;;;;;5072617;28;20042;-66
2023/10/06 02:27:52;;;;;;;18.73;4.78;;;15.10;99.90;;;;;;5071512;28;20539;-66
2023/10/06 02:30:24;;;;;;;11.20;4.25;;;15.10;99.90;;;;;;5060611;28;20041;-66
2023/10/06 02:32:51;;;;;;;11.73;4.90;;;15.10;99.90;;;;;;5069972;28;20056;-66
2023/10/06 02:35:17;;;;;;;8.18;3.88;;;15.10;99.90;;;;;;5072464;28;20044;-67
2023/10/06 02:37:46;;;;;;;10.45;3.47;;;15.00;99.90;;;;;;5072727;28;20036;-67
2023/10/06 02:40:12;;;;;;;8.95;3.70;;;15.00;99.90;;;;;;5072351;28;20091;-67
2023/10/06 02:42:53;;;;;;;10.52;3.90;;;15.00;99.90;;;;;;5073207;28;20041;-67
2023/10/06 02:45:22;;;;;;;11.10;5.07;;;15.00;99.90;;;;;;5072557;28;20044;-66
2023/10/06 02:47:48;;;;;;;12.73;3.72;;;15.00;99.90;;;;;;5072019;28;20489;-66
2023/10/06 02:50:20;;;;;;;13.85;4.40;;;15.00;99.90;;;;;;5073008;28;20068;-66
2023/10/06 02:52:46;;;;;;;9.27;3.40;;;15.00;99.90;;;;;;5071331;28;20059;-66
2023/10/06 02:55:30;;;;;;;10.43;3.67;;;15.00;99.90;;;;;;5071704;28;20505;-66
2023/10/06 02:57:57;;;;;;;10.95;3.63;;;15.10;99.90;;;;;;5071489;28;20041;-66
2023/10/06 03:03:12;;;;;;;15.85;4.72;;;15.00;99.90;;;;;;5056641;28;20910;-66
2023/10/06 03:05:49;;;;;;;12.13;3.42;;;15.00;99.90;;;;;;5051097;28;20179;-66
2023/10/06 03:08:18;;;;;;;15.32;4.00;;;15.00;99.90;;;;;;5051828;28;20060;-66
2023/10/06 03:10:44;;;;;;;10.93;3.78;;;15.00;99.90;;;;;;5052030;28;20049;-66
2023/10/06 03:13:13;;;;;;;11.85;4.07;;;14.90;99.90;;;;;;5051093;28;20473;-66
2023/10/06 03:15:45;;;;;;;12.63;3.75;;;14.90;99.90;;;;;;5034919;28;20497;-66
2023/10/06 03:18:13;;;;;;;9.38;3.35;;;15.00;99.90;;;;;;5051483;28;20049;-66
2023/10/06 03:20:47;;;;;;;11.05;4.10;;;14.90;99.90;;;;;;5050651;28;20053;-66
2023/10/06 03:23:26;;;;;;;11.85;5.60;;;14.90;99.90;;;;;;5061640;28;20045;-66
2023/10/06 03:25:56;;;;;;;15.68;4.65;;;15.00;99.90;;;;;;5070470;28;20052;-66
2023/10/06 03:28:28;;;;;;;13.75;5.38;;;14.90;99.90;;;;;;5071373;28;20178;-66
2023/10/06 03:30:54;;;;;;;14.20;6.28;;;14.90;99.90;;;;;;5072014;28;20482;-66
2023/10/06 03:33:19;;;;;;;13.63;6.00;;;14.90;99.90;;;;;;5056631;28;20178;-66
2023/10/06 03:35:47;;;;;;;17.02;6.70;;;14.90;99.90;;;;;;5058103;28;20033;-66
2023/10/06 03:41:07;;;;;;;15.60;6.68;;;14.90;99.90;;;;;;5050463;28;20131;-66
2023/10/06 03:43:50;;;;;;;18.05;7.65;;;14.90;99.90;;;;;;5067042;28;20048;-66
2023/10/06 03:46:18;;;;;;;14.57;7.53;;;14.90;99.90;;;;;;5050980;28;20032;-67
2023/10/06 03:48:46;;;;;;;20.73;7.88;;;14.80;99.90;;;;;;5051507;28;20052;-66
2023/10/06 03:51:11;;;;;;;19.83;8.90;;;14.90;99.90;;;;;;5052108;28;20049;-66
2023/10/06 03:53:37;;;;;;;15.90;7.18;;;14.80;99.90;;;;;;5050844;28;20049;-67
2023/10/06 03:56:03;;;;;;;13.30;7.18;;;14.80;99.90;;;;;;5063227;28;20044;-67
2023/10/06 03:58:28;;;;;;;19.30;8.02;;;14.90;99.90;;;;;;5056395;28;20112;-66
2023/10/06 04:00:54;;;;;;;12.82;7.18;;;14.90;99.90;;;;;;5051706;28;20111;-67
2023/10/06 04:03:21;;;;;;;15.52;7.68;;;14.90;99.90;;;;;;5051957;28;20037;-67
2023/10/06 04:05:49;;;;;;;14.85;6.40;;;14.80;99.90;;;;;;5050673;28;20047;-66
2023/10/06 04:08:20;;;;;;;14.60;6.57;;;14.80;99.90;;;;;;5049824;28;20045;-66
2023/10/06 04:10:57;;;;;;;12.63;6.43;;;14.80;99.90;;;;;;5051022;28;20470;-67
2023/10/06 04:13:24;;;;;;;14.02;7.30;;;14.80;99.90;;;;;;5034579;28;20128;-67
2023/10/06 04:15:52;;;;;;;13.23;7.15;;;14.70;99.90;;;;;;5051063;28;20064;-67
2023/10/06 04:18:19;;;;;;;15.95;7.65;;;14.70;99.90;;;;;;5050591;28;20082;-68
2023/10/06 04:20:45;;;;;;;13.95;7.45;;;14.70;99.90;;;;;;5050666;28;20518;-68
2023/10/06 04:23:12;;;;;;;16.58;8.18;;;14.80;99.90;;;;;;5033238;28;20505;-68
2023/10/06 04:25:39;;;;;;;16.52;8.32;;;14.80;99.90;;;;;;5056358;28;20489;-69
2023/10/06 04:28:14;;;;;;;15.35;7.32;;;14.80;99.90;;;;;;5070077;28;20476;-69
2023/10/06 04:30:43;;;;;;;23.75;8.80;;;14.80;99.90;;;;;;5069789;28;20089;-68
2023/10/06 04:33:10;;;;;;;23.50;8.60;;;14.70;99.90;;;;;;5053560;28;20397;-69
2023/10/06 04:38:29;;;;;;;16.95;6.80;;;14.80;99.90;;;;;;5070428;28;20117;-69
2023/10/06 04:40:56;;;;;;;20.38;7.60;;;14.70;99.90;;;;;;5056099;28;20128;-69
2023/10/06 04:43:23;;;;;;;15.82;7.25;;;14.70;99.90;;;;;;5051803;28;20045;-68
2023/10/06 04:45:50;;;;;;;14.10;7.40;;;14.70;99.90;;;;;;5054307;28;20037;-69
2023/10/06 04:48:18;;;;;;;14.52;6.30;;;14.70;99.90;;;;;;5054594;28;20374;-68
2023/10/06 04:50:45;;;;;;;17.35;7.22;;;14.80;99.90;;;;;;5053446;28;20057;-68
2023/10/06 04:53:11;;;;;;;16.35;6.85;;;14.80;99.90;;;;;;5055464;28;20383;-68
2023/10/06 04:55:39;;;;;;;22.30;8.63;;;14.70;99.90;;;;;;5057411;28;20060;-69
2023/10/06 04:58:14;;;;;;;17.58;8.10;;;14.70;99.90;;;;;;5073885;28;20056;-69
2023/10/06 05:00:40;;;;;;;12.73;7.25;;;14.70;99.90;;;;;;5072953;28;20404;-69
2023/10/06 05:03:06;;;;;;;17.58;7.13;;;14.70;99.90;;;;;;5074414;28;20044;-69
2023/10/06 05:05:40;;;;;;;18.85;7.68;;;14.80;99.90;;;;;;5073513;28;20059;-69
2023/10/06 05:08:09;;;;;;;15.15;7.00;;;14.70;99.90;;;;;;5074394;28;20040;-69
2023/10/06 05:10:36;;;;;;;14.68;7.03;;;14.80;99.90;;;;;;5060821;28;20041;-69
2023/10/06 05:13:05;;;;;;;15.18;6.95;;;14.70;99.90;;;;;;5054925;28;20405;-69
2023/10/06 05:15:33;;;;;;;11.55;6.78;;;14.60;99.90;;;;;;5053866;28;20052;-69
2023/10/06 05:18:03;;;;;;;17.05;7.45;;;14.70;99.90;;;;;;5055286;28;20067;-69
2023/10/06 05:20:35;;;;;;;11.40;6.07;;;14.70;99.90;;;;;;5052860;28;20041;-69
2023/10/06 05:23:14;;;;;;;25.35;8.07;;;14.70;99.90;;;;;;5054111;28;20053;-69
2023/10/06 05:25:40;;;;;;;16.33;5.85;;;14.70;99.90;;;;;;5048136;28;20143;-69
2023/10/06 05:28:10;;;;;;;12.93;6.03;;;14.70;99.90;;;;;;5073956;28;20048;-69
2023/10/06 05:30:37;;;;;;;16.63;7.07;;;14.70;99.90;;;;;;5073908;28;20063;-69
2023/10/06 05:33:04;;;;;;;17.23;6.10;;;14.60;99.90;;;;;;5073125;28;20045;-69
2023/10/06 05:35:38;;;;;;;19.63;7.22;;;14.70;99.90;;;;;;5073348;28;20048;-69
2023/10/06 05:38:14;;;;;;;19.13;8.25;;;14.70;99.90;;;;;;5057360;28;20040;-69
2023/10/06 05:40:40;;;;;;;19.73;7.35;;;14.70;99.90;;;;;;5072667;28;20046;-69
2023/10/06 05:43:11;;;;;;;13.73;6.35;;;14.70;99.90;;;;;;5073767;28;20048;-69
2023/10/06 05:45:41;;;;;;;20.00;6.32;;;14.70;99.90;;;;;;5074412;28;20360;-68
2023/10/06 05:48:11;;;;;;;18.27;7.70;;;14.70;99.90;;;;;;5072483;28;20049;-69
2023/10/06 05:50:38;;;;;;;13.77;6.43;;;14.70;99.90;;;;;;5040183;28;20072;-68
2023/10/06 05:53:07;;;;;;;12.90;6.05;;;14.70;99.90;;;;;;5053296;28;20056;-68
2023/10/06 05:55:35;;;;;;;18.85;6.07;;;14.70;99.90;;;;;;5051239;28;20056;-68
2023/10/06 05:58:09;;;;;;;14.93;6.68;;;14.70;99.90;;;;;;5053601;28;20116;-68
2023/10/06 06:00:43;;;;;;;23.50;6.55;;;14.70;99.90;;;;;;5086105;28;20493;-69
2023/10/06 06:03:13;;;;;;;18.83;7.30;;;14.70;99.90;;;;;;5054267;28;20119;-69
2023/10/06 06:05:40;;;;;;;16.98;6.93;;;14.70;99.90;;;;;;5036273;28;20048;-68
2023/10/06 06:08:09;;;;;;;19.98;7.10;;;14.70;99.90;;;;;;5062072;28;20086;-69
2023/10/06 06:10:36;;;;;;;16.52;6.28;;;14.80;99.90;;;;;;5073052;28;20040;-69
2023/10/06 06:13:02;;;;;;;16.33;6.25;;;14.80;99.90;;;;;;5074436;28;20442;-69
2023/10/06 06:15:28;;;;;;;17.38;5.85;;;14.80;99.90;;;;;;5071674;28;20090;-69
2023/10/06 06:17:54;;;;;;;16.88;6.38;;;14.90;99.90;;;;;;5073525;28;20482;-69
2023/10/06 06:20:22;;;;;;;14.20;5.35;;;14.80;99.90;;;;;;5073820;28;20054;-69
2023/10/06 06:23:02;;;;;;;16.63;6.25;;;14.80;99.90;;;;;;5105970;28;20056;-69
2023/10/06 06:25:29;;;;;;;14.30;6.70;;;14.80;99.90;;;;;;5072511;28;20044;-69
2023/10/06 06:27:59;;;;;;;12.93;5.72;;;14.90;99.90;;;;;;5072712;28;20051;-69
2023/10/06 06:30:25;;;;;;;13.35;5.55;;;14.90;99.90;;;;;;5072078;28;20131;-69
2023/10/06 06:32:54;;;;;;;15.20;5.88;;;14.90;99.90;;;;;;5072687;28;20048;-69
2023/10/06 06:35:22;;;;;;;17.45;5.80;;;14.90;99.90;;;;;;5067102;28;20082;-68
2023/10/06 06:37:56;;;;;;;18.77;6.85;;;14.90;99.90;;;;;;5054763;28;20056;-69
2023/10/06 06:40:22;;;;;;;14.18;5.95;;;15.00;99.90;;;;;;5052475;28;20086;-69
2023/10/06 06:42:55;;;;;;;19.58;5.95;;;14.90;99.90;;;;;;5051261;28;20053;-69
2023/10/06 06:45:21;;;;;;;13.98;5.18;;;15.00;99.90;;;;;;5053322;28;20371;-69
2023/10/06 06:47:47;;;;;;;17.05;5.82;;;14.90;99.90;;;;;;5060921;28;20039;-69
2023/10/06 06:50:15;;;;;;;17.00;6.07;;;15.00;99.90;;;;;;5070748;28;20123;-69
2023/10/06 06:52:42;;;;;;;18.33;7.72;;;14.90;99.90;;;;;;5072024;28;20118;-69
2023/10/06 06:55:15;;;;;;;61.33;33.70;;;14.90;99.90;;;;;;5072121;28;20052;-69
2023/10/06 06:57:44;;;;;;;25.25;11.70;;;14.90;99.90;;;;;;5054441;28;20045;-69
2023/10/06 07:00:17;;;;;;;49.72;33.67;;;15.00;99.90;;;;;;5062092;28;20394;-69
2023/10/06 07:02:45;;;;;;;19.55;9.13;;;15.00;99.90;;;;;;5051668;28;20045;-69
2023/10/06 07:05:12;;;;;;;56.08;45.55;;;15.00;99.90;;;;;;5052565;28;20359;-69
2023/10/06 07:07:40;;;;;;;12.23;6.25;;;15.00;99.90;;;;;;5035363;28;20037;-69
2023/10/06 07:10:10;;;;;;;18.00;6.45;;;15.10;99.90;;;;;;5052245;28;20190;-69
2023/10/06 07:12:36;;;;;;;17.55;6.10;;;15.00;99.90;;;;;;5050915;28;20604;-68
2023/10/06 07:15:02;;;;;;;13.90;6.15;;;15.00;99.90;;;;;;5055342;28;20052;-68
2023/10/06 07:17:28;;;;;;;18.80;6.63;;;15.10;99.90;;;;;;5041369;28;20048;-69
2023/10/06 07:20:00;;;;;;;12.70;5.20;;;15.10;99.90;;;;;;5036318;28;20049;-68
2023/10/06 07:22:31;;;;;;;12.70;5.00;;;15.10;99.90;;;;;;5051340;28;20049;-68
2023/10/06 07:24:57;;;;;;;15.23;6.82;;;15.00;99.90;;;;;;5052133;28;20129;-68
2023/10/06 07:27:24;;;;;;;23.23;12.18;;;15.10;99.90;;;;;;5054517;28;20043;-68
2023/10/06 07:29:52;;;;;;;18.40;6.45;;;15.10;99.90;;;;;;5049571;28;20041;-69
2023/10/06 07:32:18;;;;;;;16.05;6.50;;;15.20;99.90;;;;;;5030132;28;20114;-68
2023/10/06 07:34:44;;;;;;;17.90;6.53;;;15.10;99.90;;;;;;5048743;28;20044;-69
2023/10/06 07:37:11;;;;;;;16.60;6.38;;;15.10;99.90;;;;;;5048761;28;20102;-68
2023/10/06 07:39:37;;;;;;;14.43;6.22;;;15.20;99.90;;;;;;5048066;28;20048;-69
2023/10/06 07:42:06;;;;;;;17.45;6.55;;;15.20;99.90;;;;;;5048519;28;20107;-69
2023/10/06 07:44:33;;;;;;;19.33;6.38;;;15.20;99.90;;;;;;5048900;28;20131;-69
2023/10/06 07:47:00;;;;;;;14.77;6.13;;;15.20;99.90;;;;;;5050785;28;20410;-69
2023/10/06 07:49:27;;;;;;;16.38;6.63;;;15.20;99.90;;;;;;5047311;28;20063;-69
2023/10/06 07:51:55;;;;;;;15.80;6.40;;;15.20;99.90;;;;;;5054155;28;20098;-69
2023/10/06 07:54:23;;;;;;;18.33;6.25;;;15.30;99.90;;;;;;5050501;28;20101;-69
2023/10/06 07:56:49;;;;;;;12.32;6.75;;;15.30;99.90;;;;;;5069633;28;20052;-69
2023/10/06 07:59:14;;;;;;;12.00;6.03;;;15.30;99.90;;;;;;5068238;28;20142;-69
2023/10/06 08:01:40;;;;;;;13.75;6.72;;;15.40;99.90;;;;;;5067432;28;20401;-69
2023/10/06 08:04:07;;;;;;;14.75;5.63;;;15.50;99.90;;;;;;5068514;28;20040;-69
2023/10/06 08:06:34;;;;;;;13.63;6.57;;;15.50;99.90;;;;;;5068221;28;20056;-69
2023/10/06 08:09:05;;;;;;;15.60;6.25;;;15.50;99.90;;;;;;5068408;28;20052;-69
2023/10/06 08:11:34;;;;;;;13.90;5.60;;;15.50;99.90;;;;;;5068110;28;20044;-69
2023/10/06 08:14:00;;;;;;;13.43;6.35;;;15.60;99.90;;;;;;5069342;28;20073;-68
2023/10/06 08:16:30;;;;;;;16.23;5.63;;;15.70;99.90;;;;;;5066024;28;20068;-69
2023/10/06 08:18:56;;;;;;;25.95;7.40;;;15.70;99.90;;;;;;5049301;28;20081;-69
2023/10/06 08:21:22;;;;;;;15.05;6.43;;;15.90;99.90;;;;;;5046068;28;20865;-69
2023/10/06 08:23:48;;;;;;;12.88;6.05;;;16.00;99.90;;;;;;5047661;28;20060;-69
2023/10/06 08:26:14;;;;;;;16.80;6.13;;;15.90;99.90;;;;;;5047722;28;20378;-69
2023/10/06 08:28:40;;;;;;;14.13;5.82;;;16.00;99.90;;;;;;5048132;28;20103;-68
2023/10/06 08:31:14;;;;;;;14.25;5.80;;;16.00;99.90;;;;;;5047454;28;20040;-69
2023/10/06 08:33:40;;;;;;;12.20;5.97;;;16.10;99.90;;;;;;5056526;28;20401;-69
2023/10/06 08:36:08;;;;;;;13.02;5.10;;;16.10;99.90;;;;;;5052060;28;20283;-69
2023/10/06 08:38:34;;;;;;;12.98;5.95;;;16.20;99.90;;;;;;5048772;28;20091;-69
2023/10/06 08:41:04;;;;;;;18.77;5.43;;;16.30;99.90;;;;;;5050996;28;20064;-69
2023/10/06 08:43:31;;;;;;;17.30;4.80;;;16.40;99.90;;;;;;5046356;28;20059;-70
2023/10/06 08:45:59;;;;;;;19.23;6.50;;;16.40;99.90;;;;;;5077642;28;20810;-70
2023/10/06 08:48:31;;;;;;;11.32;4.82;;;16.50;99.90;;;;;;5046232;28;20405;-71
2023/10/06 08:50:58;;;;;;;17.58;4.93;;;16.50;99.90;;;;;;5046921;28;20107;-69
2023/10/06 08:53:26;;;;;;;15.45;5.30;;;16.50;99.90;;;;;;5031072;28;20045;-69
2023/10/06 08:55:52;;;;;;;17.17;5.63;;;16.50;99.90;;;;;;5060411;28;20482;-69
2023/10/06 08:58:18;;;;;;;18.52;5.90;;;16.50;99.90;;;;;;5047464;28;20053;-70
2023/10/06 09:00:44;;;;;;;13.80;5.68;;;16.50;99.90;;;;;;5061005;28;20079;-69
2023/10/06 09:03:16;;;;;;;13.88;4.78;;;16.60;99.90;;;;;;5066373;28;20122;-69
2023/10/06 09:05:42;;;;;;;14.60;4.78;;;16.60;99.90;;;;;;5041843;28;20049;-69
2023/10/06 09:08:14;;;;;;;12.88;4.78;;;16.70;99.90;;;;;;5071278;28;20402;-69
2023/10/06 09:10:41;;;;;;;13.93;5.15;;;16.70;99.90;;;;;;5059268;28;20462;-69
2023/10/06 09:13:12;;;;;;;13.88;4.82;;;16.90;99.90;;;;;;5050225;28;20033;-69
2023/10/06 09:15:43;;;;;;;24.27;5.90;;;17.00;99.90;;;;;;5030663;28;20053;-69
2023/10/06 09:18:24;;;;;;;17.58;5.63;;;16.90;99.90;;;;;;5045622;28;20130;-69
2023/10/06 09:20:50;;;;;;;11.13;4.50;;;17.00;99.90;;;;;;5054876;28;20048;-69
2023/10/06 09:23:30;;;;;;;13.48;4.50;;;16.90;99.90;;;;;;5067208;28;20119;-70
2023/10/06 09:26:15;;;;;;;17.60;5.00;;;16.90;99.90;;;;;;5066253;28;20091;-69
2023/10/06 09:28:59;;;;;;;17.35;5.68;;;16.90;99.90;;;;;;5056635;28;20636;-69
2023/10/06 09:31:44;;;;;;;14.32;4.95;;;16.90;99.90;;;;;;5040627;28;20087;-69
2023/10/06 09:34:11;;;;;;;12.73;4.78;;;17.00;99.90;;;;;;5059465;28;20041;-70
2023/10/06 09:36:38;;;;;;;13.10;4.63;;;17.00;99.90;;;;;;5056680;28;20090;-69
2023/10/06 09:39:13;;;;;;;13.73;5.00;;;17.00;99.90;;;;;;5051847;28;20420;-69
2023/10/06 09:41:40;;;;;;;13.68;4.47;;;17.10;99.90;;;;;;5062276;28;20090;-68
2023/10/06 09:44:11;;;;;;;16.15;5.13;;;17.20;99.90;;;;;;5050286;28;20383;-68
2023/10/06 09:46:41;;;;;;;13.73;5.15;;;17.30;99.90;;;;;;5052864;28;20056;-73
2023/10/06 09:49:11;;;;;;;11.80;3.85;;;17.40;99.90;;;;;;5053216;28;20089;-67
2023/10/06 09:51:37;;;;;;;17.67;5.57;;;17.50;99.90;;;;;;5053222;28;20045;-78
2023/10/06 09:54:09;;;;;;;16.63;4.80;;;17.40;99.90;;;;;;5054028;28;20044;-73
2023/10/06 09:56:41;;;;;;;12.27;4.35;;;17.50;99.90;;;;;;5053014;28;20045;-66
2023/10/06 09:59:12;;;;;;;14.32;4.63;;;17.60;99.90;;;;;;5053526;28;20041;-73
2023/10/06 10:01:42;;;;;;;12.05;5.22;;;17.60;99.90;;;;;;5061218;28;20041;-69
2023/10/06 10:04:11;;;;;;;15.93;4.68;;;17.70;99.90;;;;;;5074642;28;20500;-68
2023/10/06 10:06:43;;;;;;;14.63;4.65;;;17.70;99.90;;;;;;5055442;28;20037;-69
2023/10/06 10:09:15;;;;;;;18.35;4.55;;;17.90;99.90;;;;;;5088773;28;20037;-68
2023/10/06 10:11:45;;;;;;;11.93;4.45;;;18.00;99.90;;;;;;5054470;28;20047;-68
2023/10/06 10:14:49;;;;;;;15.15;5.75;;;18.10;99.90;;;;;;5073809;28;20036;-68
2023/10/06 10:17:44;;;;;;;14.60;4.90;;;18.20;99.90;;;;;;5071920;28;20573;-68
2023/10/06 10:20:10;;;;;;;;;;;18.50;99.90;;;;;;5041296;28;20430;-68
2023/10/06 10:22:36;;;;;;;14.68;4.10;;;18.60;99.90;;;;;;5071328;28;20026;-71
2023/10/06 10:25:04;;;;;;;12.73;4.30;;;18.70;99.90;;;;;;5071068;28;20035;-71
2023/10/06 10:27:30;;;;;;;15.15;4.00;;;18.70;99.90;;;;;;5071749;28;20079;-70
2023/10/06 10:29:56;;;;;;;11.80;3.72;;;18.70;99.90;;;;;;5072925;28;20064;-70
2023/10/06 10:32:24;;;;;;;12.88;3.88;;;18.70;99.90;;;;;;5071209;28;20063;-70
2023/10/06 10:35:14;;;;;;;13.52;4.20;;;18.70;99.90;;;;;;5065273;28;20139;-70
2023/10/06 10:37:52;;;;;;;15.65;3.70;;;18.80;99.90;;;;;;5034489;28;20479;-69
2023/10/06 10:40:22;;;;;;;25.63;6.32;;;18.70;99.90;;;;;;5067079;28;20046;-70
2023/10/06 10:42:54;;;;;;;13.98;4.65;;;18.70;99.90;;;;;;5061459;28;20148;-70
2023/10/06 10:45:34;;;;;;;17.80;4.57;;;18.60;99.90;;;;;;5052286;28;20055;-70
2023/10/06 10:48:04;;;;;;;13.25;4.25;;;18.60;99.90;;;;;;5035642;28;20037;-70
2023/10/06 10:50:57;;;;;;;10.52;3.47;;;18.60;99.90;;;;;;5050684;28;20401;-70
2023/10/06 10:53:23;;;;;;;12.35;4.55;;;18.60;99.90;;;;;;5053555;28;20482;-71
2023/10/06 10:55:50;;;;;;;11.40;3.65;;;18.60;99.90;;;;;;5051547;28;20136;-71
2023/10/06 10:58:49;;;;;;;17.85;4.82;;;18.70;99.90;;;;;;5053051;28;20041;-70
2023/10/06 11:01:36;;;;;;;12.85;4.20;;;18.70;99.90;;;;;;5051885;28;20059;-71
2023/10/06 11:04:21;;;;;;;13.60;5.05;;;18.80;99.90;;;;;;5051330;28;20049;-70
2023/10/06 11:06:49;;;;;;;11.57;4.85;;;18.80;99.90;;;;;;5035185;28;20037;-70
2023/10/06 11:09:29;;;;;;;13.27;3.90;;;18.70;99.90;;;;;;5035246;28;20072;-70
2023/10/06 11:12:00;;;;;;;16.25;4.53;;;18.80;99.90;;;;;;5051248;28;20053;-69
2023/10/06 11:14:29;;;;;;;14.23;4.30;;;18.80;99.90;;;;;;5052909;28;20047;-70
2023/10/06 11:17:06;;;;;;;11.30;3.95;;;18.70;99.90;;;;;;5051050;28;20045;-66
2023/10/06 11:19:33;;;;;;;14.65;4.20;;;18.70;99.90;;;;;;5051401;28;20056;-70
2023/10/06 11:22:13;;;;;;;13.43;3.67;;;18.70;99.90;;;;;;5051731;28;20071;-71
2023/10/06 11:24:40;;;;;;;17.58;4.72;;;18.70;99.90;;;;;;5050414;28;20051;-70
2023/10/06 11:27:16;;;;;;;12.40;4.30;;;18.60;99.90;;;;;;5051398;28;20052;-70
2023/10/06 11:29:45;;;;;;;19.17;4.47;;;18.70;99.90;;;;;;5051114;28;20040;-70
2023/10/06 11:32:11;;;;;;;14.07;4.65;;;18.70;99.90;;;;;;5050721;28;20512;-70
2023/10/06 11:34:37;;;;;;;14.05;5.00;;;18.80;99.90;;;;;;5051157;28;20041;-70
2023/10/06 11:37:05;;;;;;;17.15;4.60;;;18.80;99.90;;;;;;5051720;28;20116;-71
2023/10/06 11:39:31;;;;;;;12.77;3.90;;;18.90;99.90;;;;;;5066701;28;20051;-70
2023/10/06 11:42:29;;;;;;;11.63;4.20;;;18.90;99.90;;;;;;5055555;28;20453;-69
2023/10/06 11:45:00;;;;;;;15.82;4.22;;;18.90;99.90;;;;;;5015396;28;20127;-71
2023/10/06 11:47:26;;;;;;;10.75;3.85;;;18.90;99.90;;;;;;5069116;28;20147;-69
2023/10/06 11:49:55;;;;;;;13.27;4.75;;;18.90;99.90;;;;;;5057377;28;20195;-70
2023/10/06 11:52:21;;;;;;;14.68;4.65;;;19.00;99.90;;;;;;5065841;28;20036;-69
2023/10/06 11:54:47;;;;;;;11.30;4.70;;;19.10;99.90;;;;;;5051265;28;20794;-70
2023/10/06 11:57:20;;;;;;;12.65;3.58;;;19.10;99.90;;;;;;5060875;28;20037;-70
2023/10/06 11:59:57;;;;;;;13.63;5.00;;;19.10;99.90;;;;;;5033132;28;20087;-69
2023/10/06 12:02:24;;;;;;;8.60;3.28;;;19.10;99.90;;;;;;5063037;28;20041;-69
2023/10/06 12:04:49;;;;;;;13.43;4.18;;;19.10;99.90;;;;;;5070925;28;20519;-70
2023/10/06 12:07:24;;;;;;;16.98;5.40;;;19.20;99.90;;;;;;5069377;28;20032;-69
2023/10/06 12:09:52;;;;;;;12.13;4.22;;;19.30;99.90;;;;;;5070690;28;20080;-70
2023/10/06 12:12:17;;;;;;;14.90;4.70;;;19.40;99.90;;;;;;5059223;28;20133;-70
2023/10/06 12:14:47;;;;;;;15.90;5.43;;;19.40;99.90;;;;;;5053248;28;20036;-70
2023/10/06 12:17:14;;;;;;;13.77;3.80;;;19.40;99.90;;;;;;5051489;28;20037;-69
2023/10/06 12:19:42;;;;;;;13.77;4.32;;;19.30;99.90;;;;;;5047209;28;20517;-67
2023/10/06 12:22:11;;;;;;;14.15;3.95;;;19.20;99.90;;;;;;5055569;28;20063;-67
2023/10/06 12:24:36;;;;;;;14.77;4.60;;;19.20;99.90;;;;;;5047733;28;20115;-68
2023/10/06 12:27:02;;;;;;;14.00;3.88;;;19.10;99.90;;;;;;5050665;28;20112;-70
2023/10/06 12:29:31;;;;;;;14.40;3.78;;;19.00;99.90;;;;;;5047176;28;20045;-68
2023/10/06 12:31:58;;;;;;;16.92;3.70;;;19.00;99.90;;;;;;5051332;28;20482;-70
2023/10/06 12:34:27;;;;;;;18.38;4.55;;;19.00;99.90;;;;;;5059084;28;20047;-70
2023/10/06 12:37:01;;;;;;;18.35;4.20;;;19.00;99.90;;;;;;5070868;28;20060;-71
2023/10/06 12:39:34;;;;;;;12.18;3.88;;;19.00;99.90;;;;;;5060422;28;20119;-70
2023/10/06 12:42:00;;;;;;;12.35;4.20;;;19.00;99.90;;;;;;5045109;28;20052;-70
2023/10/06 12:44:27;;;;;;;14.45;4.13;;;19.00;99.90;;;;;;5050482;28;20095;-69
2023/10/06 12:46:56;;;;;;;13.55;4.78;;;18.90;99.90;;;;;;5065788;28;20059;-69
2023/10/06 12:49:27;;;;;;;14.70;3.80;;;18.80;99.90;;;;;;5068236;28;20118;-69
2023/10/06 12:51:52;;;;;;;10.27;4.20;;;18.80;99.90;;;;;;5052874;28;20064;-69
2023/10/06 12:54:19;;;;;;;17.98;4.00;;;18.80;99.90;;;;;;5047882;28;21687;-69
2023/10/06 12:56:46;;;;;;;16.30;3.88;;;18.70;99.90;;;;;;5056903;28;20091;-70
2023/10/06 12:59:12;;;;;;;20.45;4.68;;;18.70;99.90;;;;;;5048169;28;20045;-69
2023/10/06 13:01:38;;;;;;;15.05;4.93;;;18.70;99.90;;;;;;5059509;28;20101;-70
2023/10/06 13:04:05;;;;;;;14.15;5.10;;;18.60;99.90;;;;;;5051655;28;20045;-70